createdAt,value
2023-11-22T00:02:18.732Z,79.51
2023-11-22T00:04:45.502Z,78.95
2023-11-22T00:07:12.220Z,79.42
2023-11-22T00:09:38.896Z,80.03
2023-11-22T00:12:06.070Z,80.21
2023-11-22T00:14:32.677Z,79.65
2023-11-22T00:16:59.762Z,79.56
2023-11-22T00:19:26.405Z,79.59
2023-11-22T00:21:52.894Z,78.63
2023-11-22T00:24:19.683Z,79.30
2023-11-22T00:26:46.804Z,78.94
2023-11-22T00:29:13.359Z,79.05
2023-11-22T00:31:41.419Z,79.44
2023-11-22T00:34:07.886Z,78.71
2023-11-22T00:36:35.252Z,78.93
2023-11-22T00:39:02.009Z,78.34
2023-11-22T00:41:36.681Z,78.39
2023-11-22T00:44:04.756Z,77.98
2023-11-22T00:46:31.349Z,78.80
2023-11-22T00:48:58.099Z,78.69
2023-11-22T00:51:25.109Z,78.03
2023-11-22T00:53:52.160Z,78.56
2023-11-22T00:56:18.757Z,78.40
2023-11-22T00:58:45.247Z,78.14
2023-11-22T01:01:12.716Z,78.33
2023-11-22T01:03:39.351Z,78.86
2023-11-22T01:06:07.581Z,78.99
2023-11-22T01:08:34.110Z,77.70
2023-11-22T01:11:01.065Z,78.49
2023-11-22T01:13:27.663Z,78.03
2023-11-22T01:15:55.811Z,77.78
2023-11-22T01:18:22.631Z,78.42
2023-11-22T01:20:49.165Z,79.10
2023-11-22T01:23:15.764Z,78.36
2023-11-22T01:25:42.354Z,78.40
2023-11-22T01:28:08.812Z,78.52
2023-11-22T01:30:35.315Z,78.17
2023-11-22T01:33:01.786Z,78.02
2023-11-22T01:35:28.534Z,78.74
2023-11-22T01:37:55.200Z,77.69
2023-11-22T01:40:21.672Z,77.67
2023-11-22T01:42:48.491Z,77.33
2023-11-22T01:45:15.400Z,78.40
2023-11-22T01:47:42.321Z,78.33
2023-11-22T01:50:09.850Z,78.67
2023-11-22T01:52:36.647Z,77.67
2023-11-22T01:55:05.985Z,77.92
2023-11-22T01:57:35.313Z,78.59
2023-11-22T02:00:04.893Z,78.68
2023-11-22T02:02:32.816Z,77.67
2023-11-22T02:04:59.728Z,77.71
2023-11-22T02:07:28.604Z,77.93
2023-11-22T02:09:55.297Z,76.90
2023-11-22T02:12:21.843Z,77.62
2023-11-22T02:14:48.933Z,76.94
2023-11-22T02:17:15.616Z,77.58
2023-11-22T02:19:42.149Z,77.24
2023-11-22T02:22:08.679Z,76.49
2023-11-22T02:24:35.561Z,77.42
2023-11-22T02:27:02.108Z,77.36
2023-11-22T02:29:29.372Z,77.67
2023-11-22T02:31:55.970Z,77.28
2023-11-22T02:34:22.505Z,76.77
2023-11-22T02:36:57.767Z,76.89
2023-11-22T02:39:42.285Z,77.40
2023-11-22T02:42:09.955Z,77.18
2023-11-22T02:44:36.477Z,77.53
2023-11-22T02:47:03.192Z,76.89
2023-11-22T02:49:30.705Z,78.17
2023-11-22T02:51:57.200Z,77.62
2023-11-22T02:54:23.680Z,76.78
2023-11-22T02:56:50.332Z,77.50
2023-11-22T02:59:17.419Z,77.54
2023-11-22T03:01:44.134Z,77.04
2023-11-22T03:04:10.892Z,77.30
2023-11-22T03:06:37.452Z,76.80
2023-11-22T03:09:05.564Z,76.61
2023-11-22T03:11:32.952Z,76.21
2023-11-22T03:14:00.198Z,76.13
2023-11-22T03:16:26.842Z,76.44
2023-11-22T03:18:53.413Z,77.13
2023-11-22T03:21:19.923Z,76.72
2023-11-22T03:23:46.430Z,76.33
2023-11-22T03:26:13.084Z,75.88
2023-11-22T03:28:39.679Z,75.98
2023-11-22T03:31:09.042Z,76.36
2023-11-22T03:33:35.617Z,75.12
2023-11-22T03:36:03.287Z,76.44
2023-11-22T03:38:29.875Z,76.30
2023-11-22T03:40:56.410Z,76.43
2023-11-22T03:43:23.022Z,76.42
2023-11-22T03:45:49.521Z,75.80
2023-11-22T03:48:16.241Z,75.85
2023-11-22T03:50:42.922Z,76.54
2023-11-22T03:53:09.503Z,75.46
2023-11-22T03:55:36.011Z,75.52
2023-11-22T03:58:02.537Z,76.10
2023-11-22T04:00:29.093Z,75.59
2023-11-22T04:02:57.852Z,76.43
2023-11-22T04:05:24.428Z,76.45
2023-11-22T04:07:52.729Z,76.40
2023-11-22T04:10:20.332Z,77.00
2023-11-22T04:12:47.118Z,76.48
2023-11-22T04:15:13.909Z,76.47
2023-11-22T04:17:41.986Z,75.82
2023-11-22T04:20:10.767Z,76.41
2023-11-22T04:22:38.316Z,76.08
2023-11-22T04:25:05.615Z,75.88
2023-11-22T04:27:32.283Z,75.90
2023-11-22T04:29:58.808Z,76.08
2023-11-22T04:32:25.379Z,76.01
2023-11-22T04:34:52.015Z,75.82
2023-11-22T04:37:19.766Z,75.98
2023-11-22T04:39:46.417Z,75.56
2023-11-22T04:42:12.954Z,75.83
2023-11-22T04:44:39.466Z,76.11
2023-11-22T04:47:07.484Z,75.87
2023-11-22T04:49:34.127Z,75.89
2023-11-22T04:52:00.669Z,75.44
2023-11-22T04:54:27.190Z,74.85
2023-11-22T04:56:53.678Z,75.08
2023-11-22T04:59:20.269Z,75.70
2023-11-22T05:01:46.840Z,75.19
2023-11-22T05:04:13.366Z,75.70
2023-11-22T05:06:39.960Z,75.81
2023-11-22T05:09:06.942Z,75.12
2023-11-22T05:11:33.649Z,75.81
2023-11-22T05:14:00.217Z,75.43
2023-11-22T05:16:26.797Z,75.11
2023-11-22T05:18:53.328Z,75.68
2023-11-22T05:21:19.901Z,75.00
2023-11-22T05:23:46.848Z,75.34
2023-11-22T05:26:13.734Z,75.24
2023-11-22T05:28:40.310Z,74.76
2023-11-22T05:31:06.844Z,75.38
2023-11-22T05:33:33.588Z,76.11
2023-11-22T05:36:00.279Z,76.44
2023-11-22T05:38:28.066Z,76.12
2023-11-22T05:40:54.645Z,75.77
2023-11-22T05:43:26.551Z,75.37
2023-11-22T05:45:54.181Z,76.05
2023-11-22T05:48:20.850Z,75.16
2023-11-22T05:50:48.274Z,75.42
2023-11-22T05:53:20.362Z,75.06
2023-11-22T05:55:50.610Z,75.67
2023-11-22T05:58:18.259Z,74.71
2023-11-22T06:00:48.164Z,75.20
2023-11-22T06:03:15.350Z,75.38
2023-11-22T06:05:42.118Z,75.88
2023-11-22T06:08:10.501Z,75.54
2023-11-22T06:10:37.189Z,75.35
2023-11-22T06:13:03.728Z,76.06
2023-11-22T06:15:31.867Z,76.32
2023-11-22T06:17:59.396Z,76.17
2023-11-22T06:20:28.158Z,76.00
2023-11-22T06:22:54.758Z,76.20
2023-11-22T06:25:21.309Z,75.61
2023-11-22T06:27:47.788Z,75.29
2023-11-22T06:30:15.602Z,75.74
2023-11-22T06:32:43.673Z,76.20
2023-11-22T06:35:12.574Z,75.23
2023-11-22T06:37:39.129Z,75.50
2023-11-22T06:40:06.399Z,76.26
2023-11-22T06:42:34.512Z,76.13
2023-11-22T06:45:02.019Z,75.83
2023-11-22T06:47:28.762Z,75.65
2023-11-22T06:49:55.416Z,75.76
2023-11-22T06:52:21.906Z,75.24
2023-11-22T06:54:48.408Z,75.78
2023-11-22T06:57:14.982Z,75.65
2023-11-22T06:59:42.196Z,75.42
2023-11-22T07:02:08.902Z,75.10
2023-11-22T07:04:35.723Z,75.82
2023-11-22T07:07:03.402Z,75.97
2023-11-22T07:09:30.571Z,75.67
2023-11-22T07:11:58.857Z,75.62
2023-11-22T07:14:26.219Z,76.22
2023-11-22T07:16:54.941Z,75.72
2023-11-22T07:19:21.712Z,75.86
2023-11-22T07:21:49.641Z,75.56
2023-11-22T07:24:16.921Z,75.53
2023-11-22T07:26:43.559Z,75.64
2023-11-22T07:29:10.709Z,74.61
2023-11-22T07:31:37.201Z,75.70
2023-11-22T07:34:03.885Z,75.44
2023-11-22T07:36:31.818Z,76.54
2023-11-22T07:38:58.504Z,75.67
2023-11-22T07:41:25.137Z,75.25
2023-11-22T07:43:51.662Z,75.34
2023-11-22T07:46:20.279Z,75.95
2023-11-22T07:48:48.628Z,75.90
2023-11-22T07:51:18.398Z,75.49
2023-11-22T07:53:45.061Z,74.71
2023-11-22T07:56:12.742Z,74.49
2023-11-22T07:58:39.482Z,75.37
2023-11-22T08:01:06.276Z,75.46
2023-11-22T08:03:33.332Z,74.27
2023-11-22T08:06:00.963Z,74.23
2023-11-22T08:08:27.541Z,75.90
2023-11-22T08:10:54.553Z,75.52
2023-11-22T08:13:23.844Z,74.92
2023-11-22T08:15:50.647Z,74.87
2023-11-22T08:18:17.692Z,74.82
2023-11-22T08:20:44.979Z,74.97
2023-11-22T08:23:13.009Z,74.98
2023-11-22T08:25:42.166Z,74.37
2023-11-22T08:28:09.424Z,74.77
2023-11-22T08:30:38.795Z,74.96
2023-11-22T08:33:05.511Z,75.75
2023-11-22T08:35:32.252Z,74.99
2023-11-22T08:37:59.714Z,74.86
2023-11-22T08:40:26.952Z,73.84
2023-11-22T08:42:53.964Z,74.32
2023-11-22T08:45:20.664Z,73.51
2023-11-22T08:47:47.436Z,73.13
2023-11-22T08:50:14.351Z,73.57
2023-11-22T08:52:42.976Z,73.77
2023-11-22T08:55:09.842Z,73.08
2023-11-22T08:57:38.285Z,73.36
2023-11-22T09:00:10.123Z,72.92
2023-11-22T09:02:37.421Z,72.07
2023-11-22T09:05:07.910Z,72.18
2023-11-22T09:07:36.357Z,72.76
2023-11-22T09:10:10.991Z,71.86
2023-11-22T09:12:40.602Z,71.91
2023-11-22T09:15:27.107Z,71.90
2023-11-22T09:17:54.985Z,72.08
2023-11-22T09:20:22.403Z,72.09
2023-11-22T09:22:51.237Z,71.07
2023-11-22T09:25:20.429Z,70.60
2023-11-22T09:27:49.392Z,70.97
2023-11-22T09:30:37.518Z,71.36
2023-11-22T09:33:06.797Z,71.09
2023-11-22T09:35:34.467Z,69.27
2023-11-22T09:38:01.900Z,69.64
2023-11-22T09:40:30.099Z,68.71
2023-11-22T09:42:58.938Z,68.59
2023-11-22T09:45:26.778Z,68.78
2023-11-22T09:47:54.288Z,68.55
2023-11-22T09:50:30.879Z,68.61
2023-11-22T09:53:01.672Z,69.05
2023-11-22T09:55:29.785Z,69.19
2023-11-22T09:58:01.244Z,68.27
2023-11-22T10:00:31.274Z,67.23
2023-11-22T10:02:58.961Z,66.75
2023-11-22T10:05:29.562Z,66.44
2023-11-22T10:07:57.006Z,67.58
2023-11-22T10:10:24.170Z,67.01
2023-11-22T10:12:50.705Z,67.72
2023-11-22T10:15:20.137Z,67.45
2023-11-22T10:17:57.927Z,66.79
2023-11-22T10:20:27.277Z,66.62
2023-11-22T10:22:55.002Z,66.16
2023-11-22T10:25:24.130Z,64.76
2023-11-22T10:27:52.446Z,65.11
2023-11-22T10:30:19.946Z,65.82
2023-11-22T10:32:47.150Z,65.01
2023-11-22T10:35:16.866Z,65.17
2023-11-22T10:37:46.823Z,64.17
2023-11-22T10:40:14.450Z,64.97
2023-11-22T10:42:47.018Z,63.46
2023-11-22T10:45:14.843Z,65.14
2023-11-22T10:47:43.625Z,64.64
2023-11-22T10:50:13.388Z,64.57
2023-11-22T10:52:43.742Z,65.49
2023-11-22T10:55:13.314Z,64.65
2023-11-22T10:57:49.169Z,64.83
2023-11-22T11:00:17.013Z,62.30
2023-11-22T11:02:50.205Z,65.32
2023-11-22T11:05:21.596Z,65.61
2023-11-22T11:08:12.007Z,65.38
2023-11-22T11:10:42.722Z,64.57
2023-11-22T11:13:14.300Z,62.53
2023-11-22T11:15:44.259Z,61.54
2023-11-22T11:18:14.479Z,60.79
2023-11-22T11:20:56.906Z,61.43
2023-11-22T11:23:27.502Z,63.11
2023-11-22T11:25:55.891Z,62.41
2023-11-22T11:28:26.811Z,61.93
2023-11-22T11:30:54.616Z,61.59
2023-11-22T11:33:33.880Z,60.97
2023-11-22T11:36:04.802Z,60.70
2023-11-22T11:38:34.401Z,60.08
2023-11-22T11:41:14.301Z,59.80
2023-11-22T11:43:43.555Z,58.94
2023-11-22T11:46:11.079Z,58.51
2023-11-22T11:48:38.204Z,59.35
2023-11-22T11:51:05.080Z,59.01
2023-11-22T11:53:32.567Z,59.91
2023-11-22T11:55:59.538Z,59.13
2023-11-22T11:58:26.079Z,59.54
2023-11-22T12:00:53.713Z,58.72
2023-11-22T12:03:22.887Z,59.89
2023-11-22T12:05:52.735Z,59.08
2023-11-22T12:08:19.811Z,60.91
2023-11-22T12:10:49.986Z,59.61
2023-11-22T12:13:21.209Z,57.78
2023-11-22T12:15:48.610Z,58.57
2023-11-22T12:18:15.193Z,58.57
2023-11-22T12:20:41.819Z,58.40
2023-11-22T12:23:09.670Z,59.14
2023-11-22T12:25:36.569Z,59.22
2023-11-22T12:28:03.420Z,59.16
2023-11-22T12:30:34.411Z,58.78
2023-11-22T12:33:11.074Z,59.19
2023-11-22T12:35:37.960Z,59.98
2023-11-22T12:38:07.798Z,59.03
2023-11-22T12:40:34.576Z,58.71
2023-11-22T12:43:02.139Z,58.66
2023-11-22T12:45:30.160Z,58.96
2023-11-22T12:48:00.112Z,59.56
2023-11-22T12:50:40.740Z,57.29
2023-11-22T12:53:13.845Z,59.44
2023-11-22T12:55:49.745Z,58.82
2023-11-22T12:58:20.747Z,59.58
2023-11-22T13:00:48.676Z,59.58
2023-11-22T13:03:15.775Z,58.98
2023-11-22T13:05:44.361Z,58.93
2023-11-22T13:08:14.619Z,58.81
2023-11-22T13:10:44.891Z,60.45
2023-11-22T13:13:11.579Z,60.01
2023-11-22T13:15:38.194Z,60.49
2023-11-22T13:18:07.515Z,60.22
2023-11-22T13:20:34.226Z,60.35
2023-11-22T13:23:01.229Z,61.26
2023-11-22T13:25:27.777Z,60.28
2023-11-22T13:27:54.331Z,60.63
2023-11-22T13:30:24.002Z,59.87
2023-11-22T13:32:51.255Z,60.04
2023-11-22T13:35:18.768Z,59.29
2023-11-22T13:37:46.612Z,59.58
2023-11-22T13:40:17.581Z,60.28
2023-11-22T13:42:49.282Z,60.86
2023-11-22T13:45:19.177Z,61.04
2023-11-22T13:47:48.012Z,60.90
2023-11-22T13:50:18.723Z,60.79
2023-11-22T13:52:55.201Z,60.04
2023-11-22T13:55:25.787Z,61.18
2023-11-22T13:57:55.981Z,61.85
2023-11-22T14:00:24.055Z,61.62
2023-11-22T14:02:54.091Z,61.91
2023-11-22T14:05:20.636Z,62.47
2023-11-22T14:07:47.177Z,62.48
2023-11-22T14:10:17.301Z,61.58
2023-11-22T14:12:44.964Z,60.67
2023-11-22T14:15:14.840Z,60.25
2023-11-22T14:17:42.274Z,60.58
2023-11-22T14:20:13.732Z,58.97
2023-11-22T14:22:41.829Z,60.20
2023-11-22T14:25:12.344Z,60.83
2023-11-22T14:27:43.887Z,61.10
2023-11-22T14:30:14.876Z,62.69
2023-11-22T14:32:43.455Z,62.31
2023-11-22T14:35:10.855Z,61.96
2023-11-22T14:37:43.917Z,61.47
2023-11-22T14:40:14.688Z,61.06
2023-11-22T14:42:42.681Z,60.04
2023-11-22T14:45:10.282Z,61.16
2023-11-22T14:47:37.654Z,61.54
2023-11-22T14:50:08.299Z,61.18
2023-11-22T14:52:35.376Z,60.71
2023-11-22T14:55:02.150Z,62.16
2023-11-22T14:57:29.272Z,61.31
2023-11-22T14:59:57.609Z,61.54
2023-11-22T15:02:24.308Z,61.31
2023-11-22T15:04:50.826Z,61.58
2023-11-22T15:07:17.457Z,62.36
2023-11-22T15:09:45.033Z,63.21
2023-11-22T15:12:11.600Z,62.52
2023-11-22T15:14:38.234Z,63.57
2023-11-22T15:17:05.693Z,62.42
2023-11-22T15:19:33.192Z,62.28
2023-11-22T15:22:00.319Z,62.11
2023-11-22T15:24:31.491Z,63.31
2023-11-22T15:26:58.193Z,63.22
2023-11-22T15:29:24.781Z,64.59
2023-11-22T15:31:52.315Z,64.38
2023-11-22T15:34:19.144Z,63.72
2023-11-22T15:36:46.895Z,64.05
2023-11-22T15:39:16.506Z,64.39
2023-11-22T15:41:44.897Z,64.55
2023-11-22T15:44:13.795Z,64.82
2023-11-22T15:46:44.036Z,64.73
2023-11-22T15:49:10.598Z,64.93
2023-11-22T15:51:38.019Z,65.63
2023-11-22T15:54:04.992Z,65.38
2023-11-22T15:56:32.192Z,64.74
2023-11-22T15:59:02.058Z,65.30
2023-11-22T16:01:29.763Z,65.12
2023-11-22T16:03:56.615Z,65.22
2023-11-22T16:06:24.150Z,66.07
2023-11-22T16:08:50.959Z,65.93
2023-11-22T16:11:17.630Z,65.63
2023-11-22T16:13:45.908Z,65.75
2023-11-22T16:16:12.956Z,65.67
2023-11-22T16:18:40.142Z,65.04
2023-11-22T16:21:08.568Z,65.56
2023-11-22T16:23:35.923Z,65.57
2023-11-22T16:26:05.714Z,66.42
2023-11-22T16:28:33.181Z,66.55
2023-11-22T16:31:00.946Z,66.96
2023-11-22T16:33:27.562Z,66.87
2023-11-22T16:35:55.426Z,65.70
2023-11-22T16:38:22.723Z,66.14
2023-11-22T16:40:54.039Z,66.38
2023-11-22T16:43:21.728Z,66.11
2023-11-22T16:45:50.465Z,66.96
2023-11-22T16:48:17.250Z,66.52
2023-11-22T16:50:44.617Z,66.83
2023-11-22T16:53:12.342Z,65.94
2023-11-22T16:55:39.806Z,65.68
2023-11-22T16:58:07.116Z,65.94
2023-11-22T17:00:34.041Z,66.74
2023-11-22T17:03:02.013Z,66.66
2023-11-22T17:05:31.965Z,65.78
2023-11-22T17:07:58.601Z,66.65
2023-11-22T17:10:44.975Z,67.21
2023-11-22T17:13:12.486Z,66.83
2023-11-22T17:15:41.152Z,67.01
2023-11-22T17:18:08.452Z,66.56
2023-11-22T17:20:35.308Z,66.08
2023-11-22T17:23:02.069Z,66.54
2023-11-22T17:25:28.602Z,66.38
2023-11-22T17:27:55.897Z,67.00
2023-11-22T17:30:25.508Z,67.18
2023-11-22T17:32:52.511Z,68.27
2023-11-22T17:35:19.140Z,67.84
2023-11-22T17:37:45.637Z,68.01
2023-11-22T17:40:14.963Z,69.15
2023-11-22T17:42:41.460Z,68.99
2023-11-22T17:45:08.575Z,68.43
2023-11-22T17:47:38.717Z,68.32
2023-11-22T17:50:06.574Z,68.15
2023-11-22T17:52:33.048Z,67.81
2023-11-22T17:55:00.024Z,67.45
2023-11-22T17:57:28.009Z,67.72
2023-11-22T17:59:54.671Z,67.98
2023-11-22T18:02:21.362Z,67.61
2023-11-22T18:04:47.875Z,67.64
2023-11-22T18:07:15.840Z,67.96
2023-11-22T18:09:42.803Z,68.83
2023-11-22T18:12:10.967Z,69.21
2023-11-22T18:14:37.564Z,68.52
2023-11-22T18:17:04.562Z,67.74
2023-11-22T18:19:31.319Z,67.75
2023-11-22T18:21:59.050Z,68.50
2023-11-22T18:24:28.202Z,68.54
2023-11-22T18:26:55.813Z,69.43
2023-11-22T18:29:24.561Z,69.32
2023-11-22T18:31:52.154Z,69.22
2023-11-22T18:34:19.103Z,68.98
2023-11-22T18:36:46.234Z,70.40
2023-11-22T18:39:13.982Z,70.06
2023-11-22T18:41:40.929Z,70.29
2023-11-22T18:44:08.350Z,70.77
2023-11-22T18:46:36.510Z,70.79
2023-11-22T18:49:03.167Z,70.77
2023-11-22T18:51:29.868Z,71.94
2023-11-22T18:53:56.501Z,71.42
2023-11-22T18:56:23.129Z,71.57
2023-11-22T18:58:50.169Z,71.87
2023-11-22T19:01:17.209Z,71.30
2023-11-22T19:03:43.915Z,71.40
2023-11-22T19:06:10.604Z,70.97
2023-11-22T19:08:38.357Z,70.89
2023-11-22T19:11:05.097Z,70.29
2023-11-22T19:13:33.241Z,71.60
2023-11-22T19:16:01.211Z,71.56
2023-11-22T19:18:28.913Z,72.40
2023-11-22T19:21:00.177Z,71.92
2023-11-22T19:23:27.852Z,72.18
2023-11-22T19:26:00.008Z,71.81
2023-11-22T19:28:31.409Z,71.88
2023-11-22T19:30:58.551Z,72.25
2023-11-22T19:33:25.789Z,72.12
2023-11-22T19:35:52.614Z,73.06
2023-11-22T19:38:21.580Z,73.26
2023-11-22T19:40:48.629Z,73.35
2023-11-22T19:43:16.842Z,73.79
2023-11-22T19:45:43.600Z,74.17
2023-11-22T19:48:10.345Z,74.28
2023-11-22T19:50:38.101Z,74.32
2023-11-22T19:53:04.861Z,74.63
2023-11-22T19:55:32.269Z,74.74
2023-11-22T19:58:00.465Z,74.66
2023-11-22T20:00:27.367Z,75.16
2023-11-22T20:02:54.537Z,74.88
2023-11-22T20:05:21.460Z,74.92
2023-11-22T20:07:48.231Z,74.87
2023-11-22T20:10:14.862Z,75.42
2023-11-22T20:12:42.671Z,74.93
2023-11-22T20:15:09.717Z,74.97
2023-11-22T20:17:36.445Z,75.19
2023-11-22T20:20:05.157Z,75.40
2023-11-22T20:22:31.969Z,75.64
2023-11-22T20:24:59.084Z,75.08
2023-11-22T20:27:26.009Z,75.53
2023-11-22T20:29:53.078Z,75.08
2023-11-22T20:32:20.174Z,75.63
2023-11-22T20:34:46.785Z,74.98
2023-11-22T20:37:13.346Z,74.58
2023-11-22T20:39:42.702Z,75.08
2023-11-22T20:42:09.524Z,75.23
2023-11-22T20:44:36.147Z,74.98
2023-11-22T20:47:02.963Z,75.00
2023-11-22T20:49:31.981Z,74.60
2023-11-22T20:51:59.095Z,74.35
2023-11-22T20:54:25.880Z,74.54
2023-11-22T20:56:52.538Z,74.25
2023-11-22T20:59:19.182Z,74.41
2023-11-22T21:01:45.898Z,73.76
2023-11-22T21:04:13.417Z,73.17
2023-11-22T21:06:43.026Z,73.69
2023-11-22T21:09:09.866Z,74.51
2023-11-22T21:11:43.055Z,73.77
2023-11-22T21:14:10.867Z,73.75
2023-11-22T21:16:47.027Z,73.94
2023-11-22T21:19:13.836Z,73.34
2023-11-22T21:21:40.781Z,73.29
2023-11-22T21:24:07.891Z,73.68
2023-11-22T21:26:34.598Z,73.83
2023-11-22T21:29:01.738Z,73.38
2023-11-22T21:31:28.354Z,73.25
2023-11-22T21:33:55.332Z,72.83
2023-11-22T21:36:23.125Z,73.17
2023-11-22T21:38:50.161Z,73.19
2023-11-22T21:41:16.837Z,73.03
2023-11-22T21:43:43.627Z,72.35
2023-11-22T21:46:17.604Z,72.94
2023-11-22T21:48:44.768Z,73.30
2023-11-22T21:51:11.661Z,72.18
2023-11-22T21:53:41.571Z,71.85
2023-11-22T21:56:09.259Z,72.82
2023-11-22T21:58:36.102Z,72.67
2023-11-22T22:01:02.942Z,72.83
2023-11-22T22:03:29.636Z,72.69
2023-11-22T22:05:56.554Z,72.92
2023-11-22T22:08:23.043Z,72.37
2023-11-22T22:10:49.888Z,71.78
2023-11-22T22:13:16.452Z,72.08
2023-11-22T22:15:42.936Z,72.34
2023-11-22T22:18:09.521Z,72.16
2023-11-22T22:20:43.332Z,71.49
2023-11-22T22:23:18.232Z,71.81
2023-11-22T22:25:44.714Z,72.06
2023-11-22T22:28:11.356Z,71.90
2023-11-22T22:30:38.793Z,71.71
2023-11-22T22:33:05.698Z,71.40
2023-11-22T22:35:32.281Z,70.77
2023-11-22T22:37:59.135Z,71.15
2023-11-22T22:40:25.960Z,71.21
2023-11-22T22:42:52.494Z,71.35
2023-11-22T22:45:19.074Z,70.09
2023-11-22T22:47:46.133Z,70.43
2023-11-22T22:50:13.029Z,69.94
2023-11-22T22:52:40.013Z,69.61
2023-11-22T22:55:08.342Z,69.39
2023-11-22T22:57:34.941Z,69.51
2023-11-22T23:00:01.554Z,69.01
2023-11-22T23:02:28.251Z,69.60
2023-11-22T23:04:54.850Z,68.60
2023-11-22T23:07:21.345Z,68.34
2023-11-22T23:09:47.945Z,68.53
2023-11-22T23:12:14.415Z,68.10
2023-11-22T23:14:40.923Z,67.95
2023-11-22T23:17:07.554Z,68.18
2023-11-22T23:19:36.028Z,67.66
2023-11-22T23:22:07.220Z,67.74
2023-11-22T23:24:34.384Z,68.05
2023-11-22T23:27:05.848Z,67.74
2023-11-22T23:29:33.892Z,67.32
2023-11-22T23:32:00.733Z,67.19
2023-11-22T23:34:27.520Z,67.14
2023-11-22T23:36:54.858Z,66.54
2023-11-22T23:39:21.919Z,66.70
2023-11-22T23:41:49.200Z,66.66
2023-11-22T23:44:15.748Z,66.57
2023-11-22T23:46:42.945Z,66.60
2023-11-22T23:49:09.761Z,66.35
2023-11-22T23:51:36.264Z,66.86
2023-11-22T23:54:02.879Z,66.59
2023-11-22T23:56:29.515Z,65.72
2023-11-22T23:58:56.092Z,66.60
